Participated 9 times
Between 1990 and 1998
Marino Alonso, Spain
Tour de France 2026 starts from Barcelona, Spain in

Stats and Facts from
Tour de France.

2026   2025   2024   2023  2022  2021  2020  2019   2018  2017   2016   2015  2014  2013   2012   2011  2010   2009   2008   2007   2006   2005   2004   2003   2002   2001   2000   1999   1998   1997  1996   1995   1994   1993   1992  1991   1990   1989   1988   1987   1986   1985   1984   1983  1982  1981   1980   1979  1978  1977   1976  1975  1974  1973   1972   1971   1970  1969   1968   1967   1966   1965  1964  1963   1962   1961   1960   1959   1958   1957  1956   1955   1954   1953   1952  1951  1950  1949   1948  1947  1939   1938   1937   1936   1935   1934   1933  1932   1931   1930  1929   1928   1927   1926  1925  1924  1923   1922   1921   1920   1919  1914   1913   1912   1911   1910  1909   1908   1907   1906  1905  1904   1903 

Tourstats
Sitemap

After stage 21 - 2025:
 16451 starters.
  5464 different riders.
  689 teams.
  2398 stages.
  470 restdays.
  466506.50 km.
  5925 abandoned riders.

Click map for 1907 route.
Facts from Tour de France 1907
  |   Stages.  |   Stage winners.  |   Days in jerseys.  |   Teams.  |   All riders.  |   All riders by age.  |   All riders from.  |  

  |   Rookies.  |   Withdrawls.  |   Average speed.  |   GC.  |   Polka  |   Green  |   White  |   Summits. (In tour)  |   Miscellaneous.  |  

Stage 2 on July 10th. 1907
Pick a stage:  1  2  3  4  5  6  7  8  9  10  11  12  13  14  

After stage 2:    Louis Trousselier  
  RoubaixMetz | Dist: 398.00km. | Winner: Emile Georget

Podium

Average speed for all riders in stage:  22,127 km./hr.

1
 Emile Georget  Individual13h 39' 15"=29,149  km/h

2
 Louis Trousselier  Individual13h 39' 15"=29,149  km/h

3
 Lucien Petit-Breton  Individual13h 39' 15"=29,149  km/h

4  Marcel Cadolle  Individual14h 08' 20"+  00:29:05 =28,149  km/h

5  Henri Cornet  Individual14h 08' 20"+  00:29:05 =28,149  km/h

6  Constant Menager  Individual14h 09' 00"+  00:29:45 =28,127  km/h

7  Georges Passerieu  Individual14h 20' 00"+  00:40:45 =27,767  km/h

8  Gustave Garrigou  Individual14h 20' 00"+  00:40:45 =27,767  km/h

9  François Faber  Individual14h 20' 00"+  00:40:45 =27,767  km/h

10  François Beaugendre  Individual14h 34' 10"+  00:54:55 =27,317  km/h

11  Henri Lignon  Individual14h 34' 10"+  00:54:55 =27,317  km/h

12  Julien Gabory  Individual14h 34' 10"+  00:54:55 =27,317  km/h

13  Augustin Ringeval  Individual14h 39' 00"+  00:59:45 =27,167  km/h

14  Julien Maîtron  Individual14h 39' 00"+  00:59:45 =27,167  km/h

15  Lucien Pothier  Individual14h 40' 00"+  01:00:45 =27,136  km/h

16  Léon Georget  Individual14h 41' 00"+  01:01:45 =27,106  km/h

17  Pierre Privat  Individual14h 47' 00"+  01:07:45 =26,922  km/h

18  Clément Anselme Mazan  Individual14h 47' 00"+  01:07:45 =26,922  km/h

19  Ernest Ricaux  Individual15h 04' 10"+  01:24:55 =26,411  km/h

20  Carlo Galetti  Individual15h 08' 20"+  01:29:05 =26,290  km/h

21  Luigi Ganna  Individual15h 08' 20"+  01:29:05 =26,290  km/h

22  Eberardo Pavesi  Individual15h 08' 20"+  01:29:05 =26,290  km/h

23  Fernand Vercher  Individual15h 15' 10"+  01:35:55 =26,094  km/h

24  Alois Catteau  Individual15h 16' 00"+  01:36:45 =26,070  km/h

25  Alzire Vivier  Individual15h 17' 25"+  01:38:10 =26,030  km/h

26  Marcel Lecuyer  Individual15h 21' 30"+  01:42:15 =25,914  km/h

27  Marcel Godivier  Individual15h 21' 30"+  01:42:15 =25,914  km/h

28  François  Lafourcade  Individual15h 27' 30"+  01:48:15 =25,747  km/h

29  Georges Fleury  Individual15h 35' 00"+  01:55:45 =25,540  km/h

30  Charles Crupelandt  Individual15h 37' 00"+  01:57:45 =25,486  km/h

31  Christophe Laurent  Individual16h 15' 19"+  02:36:04 =24,484  km/h

32  Cyrille Van Hauwaert  Individual16h 15' 21"+  02:36:06 =24,484  km/h

33  Martin Soulie  Individual16h 15' 22"+  02:36:07 =24,483  km/h

34  Georges Landrieu  Individual16h 15' 23"+  02:36:08 =24,483  km/h

35  Auguste Dufour  Individual16h 20' 05"+  02:40:50 =24,365  km/h

36  Armand Roume  Individual16h 38' 00"+  02:58:45 =23,928  km/h

37  Jean-Baptiste Roux  Individual16h 51' 00"+  03:11:45 =23,620  km/h

38  Ferdinand Payan  Individual16h 55' 30"+  03:16:15 =23,516  km/h

39  David Dupont  Individual16h 57' 01"+  03:17:46 =23,480  km/h

40  Gabriel Mathonat  Individual16h 57' 12"+  03:17:57 =23,476  km/h

41  Henri Timmermann  Individual16h 58' 13"+  03:18:58 =23,453  km/h

42  Edouard Wattelier  Individual16h 59' 00"+  03:19:45 =23,435  km/h

43  Honore Genin  Individual17h 06' 00"+  03:26:45 =23,275  km/h

44  Marius Julien Villette  Individual17h 21' 00"+  03:41:45 =22,939  km/h

45  Charles Jeanperin  Individual17h 26' 00"+  03:46:45 =22,830  km/h

46  Philippe Pautrat  Individual17h 27' 00"+  03:47:45 =22,808  km/h

47  Henri Lorillon  Individual17h 27' 00"+  03:47:45 =22,808  km/h

48  Alfred Quenon  Individual17h 27' 00"+  03:47:45 =22,808  km/h

49  Alfred Le Bars  Individual17h 45' 00"+  04:05:45 =22,423  km/h

50  Eugène Delaye  Individual18h 05' 00"+  04:25:45 =22,009  km/h

51  Gaston Tuvache  Individual18h 05' 00"+  04:25:45 =22,009  km/h

52  François Poiry  Individual18h 05' 00"+  04:25:45 =22,009  km/h

53  Léon Riche  Individual18h 05' 00"+  04:25:45 =22,009  km/h

54  Joseph Rouaix  Individual18h 11' 00"+  04:31:45 =21,888  km/h

55  Marceau Narcy  Individual18h 11' 00"+  04:31:45 =21,888  km/h

56  Georges Bronchard  Individual18h 16' 00"+  04:36:45 =21,788  km/h

57  Fernand Lallement  Individual18h 20' 00"+  04:40:45 =21,709  km/h

58  Albert Chartier  Individual18h 55' 00"+  05:15:45 =21,040  km/h

59  Henri Star  Individual18h 55' 30"+  05:16:15 =21,030  km/h

60  Joseph Ponthieu  Individual19h 23' 00"+  05:43:45 =20,533  km/h

61  Eloi Guichard  Individual19h 38' 00"+  05:58:45 =20,272  km/h

62  Octave Noel  Individual19h 38' 30"+  05:59:15 =20,263  km/h

63  Albert Baudet  Individual20h 14' 45"+  06:35:30 =19,658  km/h

64  Jacques Mendes  Individual20h 16' 00"+  06:36:45 =19,638  km/h

68  Louis Lavalette  Individual20h 57' 45"+  07:18:30 =18,986  km/h

65  Marcel Dozol  Individual21h 17' 00"+  07:37:45 =18,700  km/h

66  Rene Fleury  Individual21h 17' 00"+  07:37:45 =18,700  km/h

67  Albert Geraud  Individual21h 17' 00"+  07:37:45 =18,700  km/h

69  Georges Devilly  Individual25h 10' 00"+  11:30:45 =15,815  km/h

70  Jean-Marie Techenne  Individual25h 11' 45"+  11:32:30 =15,796  km/h

71  Léon Aumonier  Individual25h 13' 45"+  11:34:30 =15,775  km/h

72  Louis Gardent  Individual25h 18' 45"+  11:39:30 =15,723  km/h

73  Jules Chabas  Individual25h 19' 45"+  11:40:30 =15,713  km/h

74  Henri Pépin  Individual26h 00' 00"+  12:20:45 =15,308  km/h

75  Jean Dargassies  Individual26h 00' 00"+  12:20:45 =15,308  km/h

76  Jean Gauban  Individual26h 00' 00"+  12:20:45 =15,308  km/h

77  Andre Sevestre  Individual26h 00' 00"+  12:20:45 =15,308  km/h

78  Gaston Angeli  Individual26h 00' 00"+  12:20:45 =15,308  km/h

79  Henri Anthoine  Individual26h 00' 00"+  12:20:45 =15,308  km/h

80  Pierre Desvages  Individual26h 00' 00"+  12:20:45 =15,308  km/h


Withdrawls: 6
 RiderTeamReason
6   Alfred Faure IndividualDid not finish
9   Prosper Rau IndividualDid not finish
14   Marcel Lequatre IndividualDid not finish
54   Claude  Cursillat IndividualDid not finish
79   Jean Vezie IndividualDid not finish
106   Anton Jaeck IndividualDid not finish
Todays birthdays.

1884 • Vincenzo Borgarello
1889 • Emile Bonnefoi
1889 • Auguste Denizot
1890 • Maurice Petit
1904 • Pierino Ferioli
1905 • Vincent Carrara
1910 • Antoon Van Schendel
1925 • Georges Meunier
1945 • Gérard Besnard
1950 • Wim Kelleners
1960 • Ivan Ivanov
1960 • Pierre-Henri Menthéour
1962 • Giovanni Bottoia
1964 • Flavio Giupponi
1974 • Benoit Salmon
1977 • Iñigo Landaluze
1977 • Svein Tuft
1979 • Rubens Bertogliati
1985 • Matthew Busche

 

Optimized for Chrome - Edge
and Opera browsers.